Aviation Digital Data Service (ADDS)

Output produced by METARs form (0236 UTC 18 June 2019)
found at http://www.aviationweather.gov/metar/data/
 
Forecast for: ANYN (NAURU ISLAND , AU)
Text: TAF ANYN 172152Z 1800/1824 04008KT 9999 -SHRA SCT017 SCT030 BKN120 INTER 1800/1806 5000 +SHRA BKN008 T 32 31 29 27 Q 1008 1006 1007 1009
Forecast period: 0000 UTC 18 June 2019 to 0000 UTC 19 June 2019
Forecast type: FROM: standard forecast or significant change
Winds: from the NE (40 degrees) at 9 MPH (8 knots; 4.1 m/s)
Visibility: 6 or more miles 10+ km)
Ceiling: 12000 feet AGL
Clouds: scattered clouds at 1700 feet AGL
scattered clouds at 3000 feet AGL
broken clouds at 12000 feet AGL
Weather: -SHRA  (light rain showers)
Text:
Forecast period: 0000 to 0600 UTC 18 June 2019
Forecast type: TEMPORARY: The following changes expected for less than half the time period
Visibility: 3 miles (5 km)
Ceiling: 800 feet AGL
Clouds: broken clouds at 800 feet AGL
Weather: +SHRA  (heavy rain showers)